Home > Products > Valid Products > TAF

000
FTUS45 KBYZ 171346 AAA
TAFBIL
TAF AMD
KBIL 171346Z 1714/1812 23008KT P6SM VCSH SCT080 SCT140 BKN250
     FM171600 22010KT P6SM FEW100 SCT250=



000
FTUS45 KBYZ 171346 AAA
TAFBIL
TAF AMD
KBIL 171346Z 1714/1812 23008KT P6SM VCSH SCT080 SCT140 BKN250
     FM171600 22010KT P6SM FEW100 SCT250=



000
FTUS45 KBYZ 171252 AAA
TAFSHR
TAF AMD
KSHR 171252Z 1713/1812 VRB04KT P6SM VCSH SCT060 BKN100
     FM171500 VRB04KT P6SM SCT120 BKN250=



000
FTUS45 KBYZ 171120
TAFLVM
TAF
KLVM 171120Z 1712/1812 28008KT P6SM SCT100 BKN250
     FM172200 24008KT P6SM VCTS SCT100CB BKN250
     FM180400 32006KT P6SM SCT100 BKN250=



000
FTUS45 KBYZ 171120
TAFBIL
TAF
KBIL 171120Z 1712/1812 23008KT P6SM SCT120 BKN250=



000
FTUS45 KBYZ 171120
TAFBIL
TAF
KBIL 171120Z 1712/1812 23008KT P6SM SCT120 BKN250=



000
FTUS45 KBYZ 171120
TAFMLS
TAF
KMLS 171120Z 1712/1812 14006KT P6SM SCT150 BKN250=



000
FTUS45 KBYZ 171120
TAFMLS
TAF
KMLS 171120Z 1712/1812 14006KT P6SM SCT150 BKN250=



000
FTUS45 KBYZ 171120
TAFSHR
TAF
KSHR 171120Z 1712/1812 VRB04KT P6SM SCT120 BKN250=



000
FTUS45 KBYZ 171120
TAFLVM
TAF
KLVM 171120Z 1712/1812 28008KT P6SM SCT100 BKN250
     FM172200 24008KT P6SM VCTS SCT100CB BKN250
     FM180400 32006KT P6SM SCT100 BKN250=



000
FTUS45 KBYZ 170712 AAA
TAFLVM
TAF AMD
KLVM 170712Z 1707/1806 25008KT P6SM VCTS SCT100CB BKN250
      TEMPO 1707/1709 VRB20G30KT -TSRA BKN080CB
     FM171000 25008KT P6SM FEW120 SCT250=



000
FTUS45 KBYZ 170712 AAA
TAFLVM
TAF AMD
KLVM 170712Z 1707/1806 25008KT P6SM VCTS SCT100CB BKN250
      TEMPO 1707/1709 VRB20G30KT -TSRA BKN080CB
     FM171000 25008KT P6SM FEW120 SCT250=



000
FTUS45 KBYZ 170520
TAFBIL
TAF
KBIL 170520Z 1706/1806 22008KT P6SM FEW150 SCT250=



000
FTUS45 KBYZ 170520
TAFSHR
TAF
KSHR 170520Z 1706/1806 VRB04KT P6SM FEW120 SCT250=



000
FTUS45 KBYZ 170520
TAFSHR
TAF
KSHR 170520Z 1706/1806 VRB04KT P6SM FEW120 SCT250=



000
FTUS45 KBYZ 170520
TAFBIL
TAF
KBIL 170520Z 1706/1806 22008KT P6SM FEW150 SCT250=



000
FTUS45 KBYZ 170520
TAFMLS
TAF
KMLS 170520Z 1706/1806 14006KT P6SM FEW150 SCT250=



000
FTUS45 KBYZ 170520
TAFLVM
TAF
KLVM 170520Z 1706/1806 25008KT P6SM FEW120 SCT250=



000
FTUS45 KBYZ 170520
TAFLVM
TAF
KLVM 170520Z 1706/1806 25008KT P6SM FEW120 SCT250=



000
FTUS45 KBYZ 170520
TAFMLS
TAF
KMLS 170520Z 1706/1806 14006KT P6SM FEW150 SCT250=



000
FTUS45 KBYZ 162320
TAFLVM
TAF
KLVM 162320Z 1700/1724 24012KT P6SM VCSH SCT100 BKN150
     FM170200 22008KT P6SM SCT100 SCT250=



000
FTUS45 KBYZ 162320
TAFSHR
TAF
KSHR 162320Z 1700/1724 VRB04KT P6SM FEW120 SCT200=



000
FTUS45 KBYZ 162320
TAFSHR
TAF
KSHR 162320Z 1700/1724 VRB04KT P6SM FEW120 SCT200=



000
FTUS45 KBYZ 162320
TAFLVM
TAF
KLVM 162320Z 1700/1724 24012KT P6SM VCSH SCT100 BKN150
     FM170200 22008KT P6SM SCT100 SCT250=



000
FTUS45 KBYZ 162320
TAFMLS
TAF
KMLS 162320Z 1700/1724 VRB04KT P6SM FEW120 SCT200=



000
FTUS45 KBYZ 162320
TAFMLS
TAF
KMLS 162320Z 1700/1724 VRB04KT P6SM FEW120 SCT200=



000
FTUS45 KBYZ 162320
TAFBIL
TAF
KBIL 162320Z 1700/1724 20008KT P6SM FEW100 SCT200
     FM172100 11008KT P6SM FEW100 SCT200=



000
FTUS45 KBYZ 162310 AAA
TAFLVM
TAF AMD
KLVM 162310Z 1623/1718 24012KT P6SM VCSH SCT100 BKN150
     FM170200 22008KT P6SM SCT100 SCT250=



000
FTUS45 KBYZ 162310 AAA
TAFLVM
TAF AMD
KLVM 162310Z 1623/1718 24012KT P6SM VCSH SCT100 BKN150
     FM170200 22008KT P6SM SCT100 SCT250=



000
FTUS45 KBYZ 161720
TAFMLS
TAF
KMLS 161720Z 1618/1718 VRB05KT P6SM FEW120 SCT250=



000
FTUS45 KBYZ 161720
TAFLVM
TAF
KLVM 161720Z 1618/1718 VRB05KT P6SM FEW100 SCT250
     FM162000 24012KT P6SM SCT100 BKN250
     FM170400 22008KT P6SM SCT100 SCT250=



000
FTUS45 KBYZ 161720
TAFBIL
TAF
KBIL 161720Z 1618/1718 22012KT P6SM FEW100 SCT250=



000
FTUS45 KBYZ 161720
TAFMLS
TAF
KMLS 161720Z 1618/1718 VRB05KT P6SM FEW120 SCT250=



000
FTUS45 KBYZ 161720
TAFSHR
TAF
KSHR 161720Z 1618/1718 VRB05KT P6SM FEW100 SCT250=



000
FTUS45 KBYZ 161720
TAFLVM
TAF
KLVM 161720Z 1618/1718 VRB05KT P6SM FEW100 SCT250
     FM162000 24012KT P6SM SCT100 BKN250
     FM170400 22008KT P6SM SCT100 SCT250=



000
FTUS45 KBYZ 161720
TAFSHR
TAF
KSHR 161720Z 1618/1718 VRB05KT P6SM FEW100 SCT250=



000
FTUS45 KBYZ 161720
TAFBIL
TAF
KBIL 161720Z 1618/1718 22012KT P6SM FEW100 SCT250=



000
FTUS45 KBYZ 161120
TAFBIL
TAF
KBIL 161120Z 1612/1712 23006KT P6SM FEW150 SCT250
     FM161900 22006KT P6SM SCT150 BKN250=



000
FTUS45 KBYZ 161120
TAFLVM
TAF
KLVM 161120Z 1612/1712 VRB05KT P6SM SCT250
     FM161800 24012KT P6SM SCT120 BKN250=



000
FTUS45 KBYZ 161120
TAFMLS
TAF
KMLS 161120Z 1612/1712 VRB05KT P6SM SCT250=



000
FTUS45 KBYZ 161120
TAFSHR
TAF
KSHR 161120Z 1612/1712 VRB05KT P6SM FEW250
     FM162100 VRB05KT P6SM SCT120 BKN250=



000
FTUS45 KBYZ 161120
TAFBIL
TAF
KBIL 161120Z 1612/1712 23006KT P6SM FEW150 SCT250
     FM161900 22006KT P6SM SCT150 BKN250=



000
FTUS45 KBYZ 161120
TAFSHR
TAF
KSHR 161120Z 1612/1712 VRB05KT P6SM FEW250
     FM162100 VRB05KT P6SM SCT120 BKN250=



000
FTUS45 KBYZ 161120
TAFMLS
TAF
KMLS 161120Z 1612/1712 VRB05KT P6SM SCT250=



000
FTUS45 KBYZ 161120
TAFLVM
TAF
KLVM 161120Z 1612/1712 VRB05KT P6SM SCT250
     FM161800 24012KT P6SM SCT120 BKN250=



000
FTUS45 KBYZ 160522
TAFLVM
TAF
KLVM 160522Z 1606/1706 VRB05KT P6SM SCT250
     FM161800 24012KT P6SM SCT120 BKN250=



000
FTUS45 KBYZ 160522
TAFSHR
TAF
KSHR 160522Z 1606/1706 VRB05KT P6SM FEW250
     FM162100 VRB05KT P6SM SCT120 BKN250=



000
FTUS45 KBYZ 160522
TAFBIL
TAF
KBIL 160522Z 1606/1706 23006KT P6SM SCT250
     FM161900 22006KT P6SM SCT150 BKN250=



000
FTUS45 KBYZ 160522
TAFMLS
TAF
KMLS 160522Z 1606/1706 VRB05KT P6SM SKC
     FM170000 VRB05KT P6SM SCT250=



000
FTUS45 KBYZ 160522
TAFMLS
TAF
KMLS 160522Z 1606/1706 VRB05KT P6SM SKC
     FM170000 VRB05KT P6SM SCT250=



000
FTUS45 KBYZ 160522
TAFLVM
TAF
KLVM 160522Z 1606/1706 VRB05KT P6SM SCT250
     FM161800 24012KT P6SM SCT120 BKN250=



000
FTUS45 KBYZ 160522
TAFBIL
TAF
KBIL 160522Z 1606/1706 23006KT P6SM SCT250
     FM161900 22006KT P6SM SCT150 BKN250=



000
FTUS45 KBYZ 160522
TAFSHR
TAF
KSHR 160522Z 1606/1706 VRB05KT P6SM FEW250
     FM162100 VRB05KT P6SM SCT120 BKN250=



000
FTUS45 KBYZ 152320
TAFMLS
TAF
KMLS 152320Z 1600/1624 VRB05KT P6SM SKC=



000
FTUS45 KBYZ 152320
TAFBIL
TAF
KBIL 152320Z 1600/1624 VRB06KT P6SM FEW250
     FM160700 24010KT P6SM SKC
     FM162100 28007KT P6SM SKC=



000
FTUS45 KBYZ 152320
TAFSHR
TAF
KSHR 152320Z 1600/1624 VRB05KT P6SM SKC=



000
FTUS45 KBYZ 152320
TAFLVM
TAF
KLVM 152320Z 1600/1624 VRB05KT P6SM SKC
     FM160700 24010KT P6SM SKC
     FM161900 27010KT P6SM SKC=



000
FTUS45 KBYZ 152320
TAFLVM
TAF
KLVM 152320Z 1600/1624 VRB05KT P6SM SKC
     FM160700 24010KT P6SM SKC
     FM161900 27010KT P6SM SKC=



000
FTUS45 KBYZ 152320
TAFBIL
TAF
KBIL 152320Z 1600/1624 VRB06KT P6SM FEW250
     FM160700 24010KT P6SM SKC
     FM162100 28007KT P6SM SKC=



000
FTUS45 KBYZ 152320
TAFSHR
TAF
KSHR 152320Z 1600/1624 VRB05KT P6SM SKC=



000
FTUS45 KBYZ 152320
TAFMLS
TAF
KMLS 152320Z 1600/1624 VRB05KT P6SM SKC=



000
FTUS45 KBYZ 151720
TAFMLS
TAF
KMLS 151720Z 1518/1618 VRB05KT P6SM SKC=



000
FTUS45 KBYZ 151720
TAFLVM
TAF
KLVM 151720Z 1518/1618 VRB05KT P6SM SKC=



000
FTUS45 KBYZ 151720
TAFBIL
TAF
KBIL 151720Z 1518/1618 VRB06KT P6SM FEW250=



000
FTUS45 KBYZ 151720
TAFMLS
TAF
KMLS 151720Z 1518/1618 VRB05KT P6SM SKC=



000
FTUS45 KBYZ 151720
TAFSHR
TAF
KSHR 151720Z 1518/1618 VRB05KT P6SM SKC=



000
FTUS45 KBYZ 151720
TAFSHR
TAF
KSHR 151720Z 1518/1618 VRB05KT P6SM SKC=



000
FTUS45 KBYZ 151720
TAFBIL
TAF
KBIL 151720Z 1518/1618 VRB06KT P6SM FEW250=



000
FTUS45 KBYZ 151720
TAFLVM
TAF
KLVM 151720Z 1518/1618 VRB05KT P6SM SKC=



000
FTUS45 KBYZ 151120
TAFSHR
TAF
KSHR 151120Z 1512/1612 VRB05KT P6SM SKC=



000
FTUS45 KBYZ 151120
TAFMLS
TAF
KMLS 151120Z 1512/1612 15006KT P6SM SKC=



000
FTUS45 KBYZ 151120
TAFBIL
TAF
KBIL 151120Z 1512/1612 VRB04KT P6SM SKC
     FM151600 18006KT P6SM SKC
     FM160300 23007KT P6SM SKC=



000
FTUS45 KBYZ 151120
TAFLVM
TAF
KLVM 151120Z 1512/1612 VRB04KT P6SM SKC
     FM151900 26008KT P6SM SKC=



000
FTUS45 KBYZ 151120
TAFMLS
TAF
KMLS 151120Z 1512/1612 15006KT P6SM SKC=



000
FTUS45 KBYZ 151120
TAFSHR
TAF
KSHR 151120Z 1512/1612 VRB05KT P6SM SKC=



000
FTUS45 KBYZ 151120
TAFBIL
TAF
KBIL 151120Z 1512/1612 VRB04KT P6SM SKC
     FM151600 18006KT P6SM SKC
     FM160300 23007KT P6SM SKC=



000
FTUS45 KBYZ 151120
TAFLVM
TAF
KLVM 151120Z 1512/1612 VRB04KT P6SM SKC
     FM151900 26008KT P6SM SKC=



000
FTUS45 KBYZ 150520
TAFSHR
TAF
KSHR 150520Z 1506/1606 VRB05KT P6SM SKC=



000
FTUS45 KBYZ 150520
TAFLVM
TAF
KLVM 150520Z 1506/1606 10008KT P6SM SKC
     FM151400 VRB04KT P6SM SKC
     FM151900 26008KT P6SM SKC=



000
FTUS45 KBYZ 150520
TAFBIL
TAF
KBIL 150520Z 1506/1606 VRB04KT P6SM SKC
     FM151600 18006KT P6SM SKC=



000
FTUS45 KBYZ 150520
TAFMLS
TAF
KMLS 150520Z 1506/1606 15006KT P6SM SKC=



000
FTUS45 KBYZ 150520
TAFLVM
TAF
KLVM 150520Z 1506/1606 10008KT P6SM SKC
     FM151400 VRB04KT P6SM SKC
     FM151900 26008KT P6SM SKC=



000
FTUS45 KBYZ 150520
TAFSHR
TAF
KSHR 150520Z 1506/1606 VRB05KT P6SM SKC=



000
FTUS45 KBYZ 150520
TAFMLS
TAF
KMLS 150520Z 1506/1606 15006KT P6SM SKC=



000
FTUS45 KBYZ 150520
TAFBIL
TAF
KBIL 150520Z 1506/1606 VRB04KT P6SM SKC
     FM151600 18006KT P6SM SKC=



000
FTUS45 KBYZ 142320
TAFBIL
TAF
KBIL 142320Z 1500/1524 06007KT P6SM FEW150
     FM150400 VRB06KT P6SM SKC
     FM151400 21007KT P6SM SKC=



000
FTUS45 KBYZ 142320
TAFLVM
TAF
KLVM 142320Z 1500/1524 32006KT P6SM FEW150
     FM150400 VRB06KT P6SM FEW150
     FM151900 26008KT P6SM SKC=



000
FTUS45 KBYZ 142320
TAFMLS
TAF
KMLS 142320Z 1500/1524 04008KT P6SM FEW150
     FM150400 VRB05KT P6SM FEW150=



000
FTUS45 KBYZ 142320
TAFLVM
TAF
KLVM 142320Z 1500/1524 32006KT P6SM FEW150
     FM150400 VRB06KT P6SM FEW150
     FM151900 26008KT P6SM SKC=



000
FTUS45 KBYZ 142320
TAFSHR
TAF
KSHR 142320Z 1500/1524 VRB05KT P6SM FEW150=



000
FTUS45 KBYZ 142320
TAFSHR
TAF
KSHR 142320Z 1500/1524 VRB05KT P6SM FEW150=



000
FTUS45 KBYZ 142320
TAFBIL
TAF
KBIL 142320Z 1500/1524 06007KT P6SM FEW150
     FM150400 VRB06KT P6SM SKC
     FM151400 21007KT P6SM SKC=



000
FTUS45 KBYZ 142320
TAFMLS
TAF
KMLS 142320Z 1500/1524 04008KT P6SM FEW150
     FM150400 VRB05KT P6SM FEW150=



000
FTUS45 KBYZ 141721
TAFLVM
TAF
KLVM 141721Z 1418/1518 27006KT P6SM FEW150
     FM142000 08008KT P6SM FEW150
     FM150400 34006KT P6SM FEW150=



000
FTUS45 KBYZ 141721
TAFBIL
TAF
KBIL 141721Z 1418/1518 08006KT P6SM FEW150
     FM151000 23006KT P6SM SKC=



000
FTUS45 KBYZ 141721
TAFMLS
TAF
KMLS 141721Z 1418/1518 11010KT P6SM FEW150=



000
FTUS45 KBYZ 141721
TAFSHR
TAF
KSHR 141721Z 1418/1518 VRB04KT P6SM FEW150=



000
FTUS45 KBYZ 141721
TAFLVM
TAF
KLVM 141721Z 1418/1518 27006KT P6SM FEW150
     FM142000 08008KT P6SM FEW150
     FM150400 34006KT P6SM FEW150=



000
FTUS45 KBYZ 141721
TAFSHR
TAF
KSHR 141721Z 1418/1518 VRB04KT P6SM FEW150=



000
FTUS45 KBYZ 141721
TAFBIL
TAF
KBIL 141721Z 1418/1518 08006KT P6SM FEW150
     FM151000 23006KT P6SM SKC=



000
FTUS45 KBYZ 141721
TAFMLS
TAF
KMLS 141721Z 1418/1518 11010KT P6SM FEW150=



    US Dept of Commerce
    National Oceanic and Atmospheric Administration
    National Weather Service
    1325 East West Highway
    Silver Spring, MD 20910
    Page Author: NWS Internet Services Team
Disclaimer
Information Quality
Credits
Glossary
Privacy Policy
Freedom of Information Act (FOIA)
About Us
Career Opportunities